createdAt,value
2018-08-09T00:00:14.071Z,6.47
2018-08-09T00:02:42.614Z,6.33
2018-08-09T00:05:11.494Z,6.08
2018-08-09T00:07:40.568Z,7.22
2018-08-09T00:10:09.876Z,6.67
2018-08-09T00:12:38.583Z,5.90
2018-08-09T00:15:07.628Z,6.22
2018-08-09T00:17:36.362Z,6.00
2018-08-09T00:20:05.091Z,6.87
2018-08-09T00:22:34.197Z,6.90
2018-08-09T00:25:02.924Z,6.47
2018-08-09T00:27:31.609Z,6.28
2018-08-09T00:30:00.629Z,6.97
2018-08-09T00:35:05.019Z,7.95
2018-08-09T00:37:33.690Z,7.83
2018-08-09T00:40:02.785Z,7.10
2018-08-09T00:42:32.073Z,7.43
2018-08-09T00:45:01.202Z,6.80
2018-08-09T00:47:29.876Z,6.40
2018-08-09T00:49:58.405Z,7.80
2018-08-09T00:52:26.866Z,7.12
2018-08-09T00:54:56.145Z,8.43
2018-08-09T00:57:25.331Z,8.70
2018-08-09T00:59:54.034Z,9.40
2018-08-09T01:02:22.732Z,9.10
2018-08-09T01:04:51.589Z,8.60
2018-08-09T01:07:20.521Z,8.53
2018-08-09T01:09:49.419Z,8.90
2018-08-09T01:12:18.464Z,8.60
2018-08-09T01:14:47.268Z,8.25
2018-08-09T01:17:15.585Z,8.98
2018-08-09T01:19:44.465Z,10.35
2018-08-09T01:22:13.142Z,9.60
2018-08-09T01:24:41.886Z,7.67
2018-08-09T01:27:10.974Z,7.50
2018-08-09T01:29:41.084Z,9.98
2018-08-09T01:32:10.134Z,10.60
2018-08-09T01:34:38.804Z,9.47
2018-08-09T01:37:07.739Z,9.07
2018-08-09T01:39:36.967Z,10.20
2018-08-09T01:42:16.546Z,11.37
2018-08-09T01:44:45.633Z,11.03
2018-08-09T01:47:14.325Z,10.20
2018-08-09T01:49:43.016Z,8.60
2018-08-09T01:52:11.968Z,8.70
2018-08-09T01:54:40.877Z,8.03
2018-08-09T01:57:09.616Z,8.43
2018-08-09T01:59:38.472Z,8.10
2018-08-09T02:02:07.820Z,10.90
2018-08-09T02:04:36.519Z,10.20
2018-08-09T02:07:05.754Z,9.90
2018-08-09T02:09:35.074Z,9.93
2018-08-09T02:12:05.172Z,10.10
2018-08-09T02:14:34.111Z,9.50
2018-08-09T02:17:02.942Z,10.40
2018-08-09T02:19:32.357Z,10.00
2018-08-09T02:22:01.380Z,10.30
2018-08-09T02:24:30.079Z,10.00
2018-08-09T02:26:59.014Z,9.27
2018-08-09T02:29:27.719Z,8.63
2018-08-09T02:31:56.179Z,9.00
2018-08-09T02:34:25.521Z,8.77
2018-08-09T02:36:54.365Z,8.53
2018-08-09T02:39:23.553Z,9.30
2018-08-09T02:41:52.677Z,8.97
2018-08-09T02:44:21.836Z,8.77
2018-08-09T02:46:51.247Z,9.20
2018-08-09T02:49:19.904Z,9.20
2018-08-09T02:51:48.918Z,8.93
2018-08-09T02:54:17.644Z,8.80
2018-08-09T02:56:46.781Z,8.98
2018-08-09T02:59:15.711Z,8.58
2018-08-09T03:01:44.297Z,8.13
2018-08-09T03:04:13.154Z,8.68
2018-08-09T03:06:41.933Z,8.53
2018-08-09T03:09:12.690Z,8.50
2018-08-09T03:11:42.279Z,8.70
2018-08-09T03:14:10.672Z,9.70
2018-08-09T03:16:39.858Z,8.48
2018-08-09T03:19:08.676Z,7.55
2018-08-09T03:21:37.445Z,8.48
2018-08-09T03:24:06.987Z,8.83
2018-08-09T03:26:36.457Z,9.80
2018-08-09T03:29:05.405Z,10.60
2018-08-09T03:31:35.356Z,12.20
2018-08-09T03:34:04.533Z,11.53
2018-08-09T03:36:33.744Z,10.33
2018-08-09T03:39:02.818Z,8.80
2018-08-09T03:41:31.691Z,9.00
2018-08-09T03:44:00.932Z,9.00
2018-08-09T03:46:30.176Z,9.10
2018-08-09T03:48:58.966Z,8.73
2018-08-09T03:51:28.190Z,9.50
2018-08-09T03:53:57.548Z,8.50
2018-08-09T03:56:26.847Z,8.57
2018-08-09T03:58:55.949Z,7.63
2018-08-09T04:01:26.377Z,8.70
2018-08-09T04:03:54.916Z,8.07
2018-08-09T04:06:24.110Z,9.60
2018-08-09T04:08:53.284Z,8.25
2018-08-09T04:11:22.084Z,8.95
2018-08-09T04:13:51.231Z,8.60
2018-08-09T04:16:20.194Z,10.43
2018-08-09T04:18:49.691Z,9.47
2018-08-09T04:21:18.669Z,8.50
2018-08-09T04:23:47.315Z,8.03
2018-08-09T04:26:16.464Z,8.30
2018-08-09T04:28:45.488Z,9.60
2018-08-09T04:31:14.246Z,9.57
2018-08-09T04:33:43.062Z,10.07
2018-08-09T04:36:11.926Z,10.83
2018-08-09T04:38:41.013Z,10.00
2018-08-09T04:41:09.887Z,9.67
2018-08-09T04:43:38.773Z,8.77
2018-08-09T04:46:08.106Z,9.13
2018-08-09T04:48:36.939Z,9.70
2018-08-09T04:51:06.050Z,9.00
2018-08-09T04:53:34.946Z,10.87
2018-08-09T04:56:03.265Z,11.90
2018-08-09T04:58:32.733Z,11.40
2018-08-09T05:01:01.443Z,12.33
2018-08-09T05:03:30.300Z,14.67
2018-08-09T05:05:59.122Z,15.23
2018-08-09T05:08:27.794Z,13.70
2018-08-09T05:10:56.471Z,14.10
2018-08-09T05:13:25.140Z,17.37
2018-08-09T05:15:54.087Z,15.80
2018-08-09T05:18:22.725Z,14.93
2018-08-09T05:20:51.541Z,12.80
2018-08-09T05:23:20.412Z,11.50
2018-08-09T05:25:49.211Z,13.00
2018-08-09T05:28:17.829Z,12.00
2018-08-09T05:30:46.541Z,12.40
2018-08-09T05:33:15.202Z,11.08
2018-08-09T05:35:43.880Z,12.50
2018-08-09T05:38:12.613Z,12.47
2018-08-09T05:40:41.313Z,12.10
2018-08-09T05:43:10.431Z,14.35
2018-08-09T05:45:39.360Z,13.32
2018-08-09T05:48:08.511Z,12.13
2018-08-09T05:50:37.282Z,13.48
2018-08-09T05:53:06.422Z,12.65
2018-08-09T05:55:34.787Z,13.60
2018-08-09T05:58:03.610Z,13.13
2018-08-09T06:00:32.925Z,13.43
2018-08-09T06:03:01.842Z,14.58
2018-08-09T06:05:30.447Z,12.45
2018-08-09T06:07:59.215Z,12.63
2018-08-09T06:10:28.484Z,11.65
2018-08-09T06:12:57.250Z,11.85
2018-08-09T06:15:26.195Z,12.55
2018-08-09T06:17:54.850Z,12.70
2018-08-09T06:20:23.589Z,12.82
2018-08-09T06:22:52.342Z,12.95
2018-08-09T06:25:21.139Z,12.15
2018-08-09T06:27:50.308Z,11.97
2018-08-09T06:30:19.038Z,12.93
2018-08-09T06:32:47.765Z,12.95
2018-08-09T06:35:16.503Z,11.50
2018-08-09T06:37:45.216Z,10.60
2018-08-09T06:40:14.417Z,10.88
2018-08-09T06:42:47.061Z,10.60
2018-08-09T06:45:15.701Z,13.30
2018-08-09T06:47:44.471Z,9.93
2018-08-09T06:50:13.149Z,9.88
2018-08-09T06:52:41.836Z,11.15
2018-08-09T06:55:10.600Z,10.65
2018-08-09T06:57:39.255Z,13.65
2018-08-09T07:00:11.008Z,12.50
2018-08-09T07:02:40.015Z,11.43
2018-08-09T07:05:08.777Z,9.73
2018-08-09T07:07:37.648Z,9.75
2018-08-09T07:10:07.119Z,11.70
2018-08-09T07:12:35.428Z,10.48
2018-08-09T07:15:04.983Z,10.10
2018-08-09T07:17:33.684Z,9.48
2018-08-09T07:20:02.361Z,8.93
2018-08-09T07:22:31.030Z,11.48
2018-08-09T07:24:59.694Z,8.60
2018-08-09T07:27:28.346Z,9.48
2018-08-09T07:29:57.046Z,7.83
2018-08-09T07:32:28.531Z,11.05
2018-08-09T07:34:56.882Z,9.88
2018-08-09T07:37:25.261Z,9.63
2018-08-09T07:39:53.954Z,10.43
2018-08-09T07:42:22.649Z,10.38
2018-08-09T07:44:51.320Z,9.23
2018-08-09T07:47:20.006Z,9.50
2018-08-09T07:49:48.652Z,9.83
2018-08-09T07:52:17.379Z,11.45
2018-08-09T07:54:46.106Z,9.28
2018-08-09T07:57:14.771Z,10.45
2018-08-09T07:59:43.413Z,10.03
2018-08-09T08:02:12.149Z,9.00
2018-08-09T08:04:40.834Z,9.45
2018-08-09T08:07:09.525Z,8.88
2018-08-09T08:09:38.210Z,9.98
2018-08-09T08:12:06.915Z,9.80
2018-08-09T08:14:35.679Z,8.85
2018-08-09T08:17:04.417Z,10.25
2018-08-09T08:19:33.071Z,11.10
2018-08-09T08:22:01.742Z,11.63
2018-08-09T08:24:30.412Z,10.45
2018-08-09T08:26:59.108Z,10.43
2018-08-09T08:29:27.814Z,9.30
2018-08-09T08:31:56.547Z,10.13
2018-08-09T08:34:25.297Z,10.05
2018-08-09T08:36:53.948Z,8.68
2018-08-09T08:39:22.593Z,13.60
2018-08-09T08:41:51.396Z,10.43
2018-08-09T08:44:20.064Z,12.20
2018-08-09T08:46:48.806Z,13.72
2018-08-09T08:49:17.279Z,12.15
2018-08-09T08:51:45.942Z,12.30
2018-08-09T08:54:15.042Z,14.33
2018-08-09T08:56:44.181Z,13.98
2018-08-09T08:59:13.197Z,16.35
2018-08-09T09:01:42.138Z,13.48
2018-08-09T09:04:13.596Z,15.25
2018-08-09T09:06:42.617Z,14.05
2018-08-09T09:09:13.357Z,13.10
2018-08-09T09:11:42.820Z,11.83
2018-08-09T09:14:12.034Z,13.08
2018-08-09T09:16:40.795Z,11.80
2018-08-09T09:19:09.780Z,13.25
2018-08-09T09:21:38.498Z,13.38
2018-08-09T09:24:07.245Z,13.53
2018-08-09T09:26:35.977Z,11.95
2018-08-09T09:29:04.293Z,15.48
2018-08-09T09:31:33.039Z,13.50
2018-08-09T09:34:01.699Z,13.78
2018-08-09T09:36:30.404Z,11.30
2018-08-09T09:38:59.140Z,12.90
2018-08-09T09:41:27.498Z,12.98
2018-08-09T09:43:56.178Z,14.80
2018-08-09T09:46:24.926Z,14.75
2018-08-09T09:48:53.800Z,14.40
2018-08-09T09:51:22.431Z,11.48
2018-08-09T09:53:51.110Z,12.37
2018-08-09T09:56:19.770Z,12.95
2018-08-09T09:58:48.470Z,12.30
2018-08-09T10:01:33.840Z,13.28
2018-08-09T10:04:03.193Z,10.82
2018-08-09T10:06:31.568Z,12.93
2018-08-09T10:08:59.868Z,11.73
2018-08-09T10:11:28.588Z,14.50
2018-08-09T10:13:57.238Z,13.88
2018-08-09T10:16:25.641Z,14.75
2018-08-09T10:18:54.792Z,12.82
2018-08-09T10:21:23.583Z,16.30
2018-08-09T10:23:52.236Z,13.98
2018-08-09T10:26:20.886Z,16.70
2018-08-09T10:28:50.408Z,16.25
2018-08-09T10:31:18.743Z,17.62
2018-08-09T10:33:47.452Z,16.00
2018-08-09T10:36:16.168Z,14.30
2018-08-09T10:38:44.849Z,19.60
2018-08-09T10:41:13.203Z,16.02
2018-08-09T10:43:41.537Z,19.80
2018-08-09T10:46:09.879Z,18.45
2018-08-09T10:48:38.180Z,18.05
2018-08-09T10:51:06.523Z,17.85
2018-08-09T10:53:34.825Z,19.15
2018-08-09T10:56:03.124Z,18.87
2018-08-09T10:58:31.441Z,18.90
2018-08-09T11:00:59.759Z,16.57
2018-08-09T11:03:28.051Z,16.80
2018-08-09T11:05:56.350Z,19.00
2018-08-09T11:08:24.748Z,15.13
2018-08-09T11:10:53.103Z,15.60
2018-08-09T11:13:21.393Z,16.45
2018-08-09T11:15:49.695Z,18.95
2018-08-09T11:18:17.961Z,18.32
2018-08-09T11:20:46.318Z,21.73
2018-08-09T11:23:14.586Z,17.17
2018-08-09T11:25:42.849Z,19.32
2018-08-09T11:28:11.225Z,18.85
2018-08-09T11:30:39.557Z,20.23
2018-08-09T11:33:07.851Z,18.80
2018-08-09T11:37:27.761Z,17.27
2018-08-09T11:39:56.067Z,18.65
2018-08-09T11:42:24.363Z,16.40
2018-08-09T11:44:52.662Z,13.62
2018-08-09T11:47:21.187Z,16.02
2018-08-09T11:49:49.506Z,14.47
2018-08-09T11:52:17.790Z,17.65
2018-08-09T11:54:46.268Z,16.60
2018-08-09T11:57:14.653Z,15.30
2018-08-09T11:59:42.940Z,15.70
2018-08-09T12:02:11.240Z,15.80
2018-08-09T12:04:39.732Z,13.43
2018-08-09T12:07:08.577Z,13.10
2018-08-09T12:09:36.867Z,15.72
2018-08-09T12:12:05.298Z,17.48
2018-08-09T12:14:33.611Z,15.45
2018-08-09T12:17:01.929Z,19.62
2018-08-09T12:19:30.248Z,15.50
2018-08-09T12:21:58.588Z,16.70
2018-08-09T12:24:27.006Z,13.80
2018-08-09T12:26:55.358Z,13.95
2018-08-09T12:29:23.691Z,13.40
2018-08-09T12:31:51.979Z,13.05
2018-08-09T12:34:20.487Z,13.62
2018-08-09T12:36:48.813Z,14.60
2018-08-09T12:39:17.198Z,13.70
2018-08-09T12:41:45.542Z,13.80
2018-08-09T12:44:13.859Z,10.28
2018-08-09T12:46:42.156Z,12.95
2018-08-09T12:49:10.482Z,11.50
2018-08-09T12:51:39.229Z,10.60
2018-08-09T12:54:07.944Z,12.18
2018-08-09T12:56:36.259Z,10.75
2018-08-09T12:59:04.563Z,12.78
2018-08-09T13:01:32.881Z,12.78
2018-08-09T13:04:01.200Z,11.95
2018-08-09T13:06:29.532Z,11.43
2018-08-09T13:09:04.186Z,11.78
2018-08-09T13:11:32.472Z,10.82
2018-08-09T13:14:00.814Z,9.60
2018-08-09T13:16:29.147Z,11.08
2018-08-09T13:18:57.463Z,11.15
2018-08-09T13:21:25.790Z,12.18
2018-08-09T13:23:54.188Z,10.50
2018-08-09T13:26:22.547Z,10.28
2018-08-09T13:28:50.842Z,8.83
2018-08-09T13:31:19.200Z,9.83
2018-08-09T13:33:47.507Z,10.65
2018-08-09T13:36:15.826Z,8.58
2018-08-09T13:38:44.107Z,9.00
2018-08-09T13:41:12.421Z,9.33
2018-08-09T13:43:40.772Z,10.38
2018-08-09T13:46:09.118Z,8.95
2018-08-09T13:48:37.396Z,8.90
2018-08-09T13:51:05.718Z,8.33
2018-08-09T13:53:34.007Z,8.38
2018-08-09T13:58:37.203Z,8.33
2018-08-09T14:01:05.534Z,8.15
2018-08-09T14:03:33.830Z,7.85
2018-08-09T14:06:02.181Z,8.25
2018-08-09T14:08:30.632Z,8.55
2018-08-09T14:10:58.949Z,7.87
2018-08-09T14:13:27.270Z,8.20
2018-08-09T14:15:55.611Z,7.85
2018-08-09T14:18:23.926Z,7.35
2018-08-09T14:20:52.189Z,8.65
2018-08-09T14:23:34.988Z,8.43
2018-08-09T14:26:03.301Z,7.95
2018-08-09T14:28:31.592Z,8.23
2018-08-09T14:31:00.368Z,7.87
2018-08-09T14:33:29.092Z,8.18
2018-08-09T14:35:57.779Z,7.60
2018-08-09T14:38:26.438Z,8.25
2018-08-09T14:40:55.172Z,8.65
2018-08-09T14:43:23.505Z,8.50
2018-08-09T14:45:51.840Z,8.03
2018-08-09T14:48:20.169Z,7.85
2018-08-09T14:50:48.438Z,7.97
2018-08-09T14:53:16.709Z,7.80
2018-08-09T14:55:45.388Z,7.67
2018-08-09T14:58:13.717Z,7.37
2018-08-09T15:00:42.033Z,6.62
2018-08-09T15:03:10.478Z,7.37
2018-08-09T15:05:39.245Z,5.22
2018-08-09T15:08:07.616Z,4.92
2018-08-09T15:10:35.931Z,5.17
2018-08-09T15:13:04.849Z,5.75
2018-08-09T15:15:33.197Z,6.40
2018-08-09T15:18:01.561Z,8.25
2018-08-09T15:20:30.543Z,7.47
2018-08-09T15:22:58.900Z,8.05
2018-08-09T15:25:27.256Z,7.55
2018-08-09T15:27:55.580Z,8.53
2018-08-09T15:30:23.909Z,7.70
2018-08-09T15:32:52.235Z,8.15
2018-08-09T15:35:20.616Z,8.63
2018-08-09T15:37:48.953Z,7.95
2018-08-09T15:40:17.258Z,7.87
2018-08-09T15:42:45.578Z,7.25
2018-08-09T15:45:15.675Z,6.80
2018-08-09T15:47:44.103Z,6.35
2018-08-09T15:50:14.759Z,6.35
2018-08-09T15:52:43.203Z,5.75
2018-08-09T15:55:11.678Z,5.00
2018-08-09T15:57:40.020Z,4.90
2018-08-09T16:00:09.664Z,5.17
2018-08-09T16:02:38.094Z,4.67
2018-08-09T16:05:07.606Z,4.67
2018-08-09T16:07:35.979Z,5.10
2018-08-09T16:10:05.924Z,4.35
2018-08-09T16:12:34.259Z,4.45
2018-08-09T16:15:03.056Z,4.65
2018-08-09T16:17:31.343Z,4.12
2018-08-09T16:19:59.621Z,4.75
2018-08-09T16:22:29.334Z,4.47
2018-08-09T16:24:57.651Z,4.60
2018-08-09T16:27:25.990Z,4.60
2018-08-09T16:29:54.302Z,4.30
2018-08-09T16:32:22.668Z,4.15
2018-08-09T16:34:50.978Z,3.90
2018-08-09T16:37:19.398Z,4.22
2018-08-09T16:39:47.724Z,3.95
2018-08-09T16:42:16.019Z,4.40
2018-08-09T16:44:44.339Z,4.37
2018-08-09T16:47:12.690Z,4.33
2018-08-09T16:49:40.972Z,3.87
2018-08-09T16:52:09.336Z,4.10
2018-08-09T16:54:37.708Z,3.92
2018-08-09T16:57:06.008Z,4.42
2018-08-09T16:59:34.318Z,4.03
2018-08-09T17:02:02.657Z,4.47
2018-08-09T17:04:30.962Z,3.98
2018-08-09T17:06:59.361Z,3.70
2018-08-09T17:09:28.107Z,3.75
2018-08-09T17:11:56.390Z,4.00
2018-08-09T17:14:25.215Z,4.15
2018-08-09T17:16:53.591Z,4.20
2018-08-09T17:19:21.912Z,4.05
2018-08-09T17:21:50.196Z,4.35
2018-08-09T17:24:18.484Z,3.65
2018-08-09T17:26:46.838Z,3.58
2018-08-09T17:29:15.112Z,4.40
2018-08-09T17:31:43.368Z,3.98
2018-08-09T17:34:11.834Z,3.80
2018-08-09T17:36:40.121Z,3.60
2018-08-09T17:39:09.378Z,3.52
2018-08-09T17:41:37.753Z,3.60
2018-08-09T17:44:06.608Z,3.47
2018-08-09T17:46:34.932Z,3.80
2018-08-09T17:49:03.251Z,4.00
2018-08-09T17:51:31.538Z,3.50
2018-08-09T17:53:59.838Z,3.52
2018-08-09T17:56:28.200Z,4.03
2018-08-09T17:58:56.504Z,4.05
2018-08-09T18:01:24.848Z,3.85
2018-08-09T18:03:53.224Z,3.80
2018-08-09T18:06:21.530Z,3.70
2018-08-09T18:08:49.846Z,3.77
2018-08-09T18:11:18.207Z,4.10
2018-08-09T18:13:46.519Z,3.77
2018-08-09T18:16:15.106Z,4.10
2018-08-09T18:18:43.419Z,4.30
2018-08-09T18:21:11.759Z,4.25
2018-08-09T18:23:40.063Z,3.83
2018-08-09T18:26:08.443Z,3.95
2018-08-09T18:28:36.739Z,3.87
2018-08-09T18:31:06.134Z,4.37
2018-08-09T18:33:34.387Z,4.20
2018-08-09T18:36:02.735Z,4.37
2018-08-09T18:38:31.055Z,4.08
2018-08-09T18:40:59.378Z,3.80
2018-08-09T18:43:28.080Z,4.20
2018-08-09T18:45:56.402Z,4.12
2018-08-09T18:48:24.706Z,3.83
2018-08-09T18:50:53.025Z,4.08
2018-08-09T18:53:21.314Z,4.15
2018-08-09T18:55:49.635Z,3.50
2018-08-09T18:58:17.951Z,4.22
2018-08-09T19:00:46.264Z,3.85
2018-08-09T19:03:14.560Z,3.95
2018-08-09T19:05:42.880Z,4.33
2018-08-09T19:08:11.156Z,3.77
2018-08-09T19:10:39.532Z,4.05
2018-08-09T19:13:07.850Z,3.70
2018-08-09T19:15:36.152Z,4.05
2018-08-09T19:18:04.568Z,3.75
2018-08-09T19:20:34.151Z,4.22
2018-08-09T19:23:02.575Z,4.10
2018-08-09T19:25:30.925Z,4.00
2018-08-09T19:27:59.284Z,4.03
2018-08-09T19:30:28.666Z,3.60
2018-08-09T19:32:57.061Z,3.35
2018-08-09T19:35:25.443Z,3.02
2018-08-09T19:37:53.762Z,3.65
2018-08-09T19:40:23.713Z,3.40
2018-08-09T19:42:52.116Z,3.50
2018-08-09T19:45:20.794Z,3.10
2018-08-09T19:47:49.287Z,3.50
2018-08-09T19:50:18.799Z,3.30
2018-08-09T19:52:47.110Z,3.60
2018-08-09T19:55:18.867Z,2.90
2018-08-09T19:57:48.129Z,3.12
2018-08-09T20:00:21.028Z,3.10
2018-08-09T20:02:49.563Z,3.30
2018-08-09T20:05:17.952Z,2.92
2018-08-09T20:07:46.388Z,3.05
2018-08-09T20:10:15.127Z,3.20
2018-08-09T20:12:44.080Z,3.12
2018-08-09T20:15:14.234Z,2.90
2018-08-09T20:17:42.611Z,2.60
2018-08-09T20:20:11.677Z,2.70
2018-08-09T20:22:40.009Z,2.50
2018-08-09T20:25:09.185Z,2.50
2018-08-09T20:27:37.881Z,2.80
2018-08-09T20:30:07.414Z,2.80
2018-08-09T20:32:35.778Z,2.72
2018-08-09T20:35:05.266Z,2.58
2018-08-09T20:37:33.584Z,3.37
2018-08-09T20:40:01.980Z,3.25
2018-08-09T20:42:30.341Z,3.70
2018-08-09T20:44:58.617Z,3.15
2018-08-09T20:47:26.942Z,3.30
2018-08-09T20:49:55.309Z,3.45
